Aktualne dane pomiarowe

Uwaga, wersja testowa! Automatyczne pobieranie danych za pomocą narzędzi lub skryptów to umożliwiających jest zabronione.

Dane meteo z obszaru Polski uzyskane na podstawie depesz SYNOP pobieranych co godzinę z NWS. Najedź myszką na symbol przedstawiony w tabeli, aby uzyskać informacje co do jego znaczenia. Prosimy pamiętać, że to testowa wersja strony, która jeszcze nie jest ukończona. Stworzono również jest krótki FAQ dotyczący korzystania z tej podstrony Anomalie temperatury w chwili obecnej odniesione są do okresu referencyjnego 1951-2016. Okres ten będzie później zmieniony na 1981-2010. Kliknij ikonę aby pobrać plik CSV. Kliknij ikonę aby wygenerować mapę synoptyczną dla danego terminu.

Wybierz Datę:    

        

Tarnów (12575)

Dane terminowe dla wybranej stacji. Kliknij datę, aby otrzymać dane z tego terminu dla wszystkich stacji.

TemperaturaZachmurzenieWiatrCiśnienieOpadyPogoda
 Data t td wb tx tn tg rh  Nt Nl Cl Cm Ch ws wd g1 g2 wx mslp ppp ch 24h 12h t ww ww w1 w2  
2019-06-20 23:00:00 18.9 17.9 18.2--- 948.0--0---01012.8 988.3 0.2---wx-----
2019-06-20 22:00:00 19.2 18.0 18.3--- 939.0--0---01012.5 988.1 0.2---wx-----
2019-06-20 21:00:00 19.5 18.2 18.5--- 9212.0--0---01012.6 988.2 0.5---------
2019-06-20 20:00:00 19.6 18.3 18.6--- 929.0--0---01012.5 988.1 0.9---------
2019-06-20 19:00:00 20.1 18.2 18.7--- 8916.0--1wx---1012.3 987.9 1.7---wx-----
2019-06-20 18:00:00 20.4 18.7 19.2 28.7 20.3- 9013.0--0---01012.0 987.7 1.6- 3.012wx-----
2019-06-20 17:00:00 21.3 18.5 19.3--- 849.0--1wx--11011.4 987.2 0.9---wx-----
2019-06-20 16:00:00 23.9 18.1 19.9--- 7021.0--1wx--11010.2 986.2 -0.6---------
2019-06-20 15:00:00 26.2 18.3 20.9--- 6218.0--1wx--11009.9 986.1 -1.2---------
2019-06-20 14:00:00 28.5 17.7 21.4--- 5224.0--1wx--11009.9 986.3 -1.4---------
2019-06-20 13:00:00 26.1 19.7 21.7--- 6819.0--2wx--21010.6 986.8 -1.2---wx-----
2019-06-20 12:00:00 28.0 17.5 21.1--- 5319.0--1wx--11011.0 987.3 -0.7--6------
2019-06-20 11:00:00 27.6 16.2 20.2--- 5022.0--1wx--11011.4 987.7 -0.3---------
2019-06-20 10:00:00 26.0 17.4 20.3--- 5920.0--1wx--11011.9 988.0 0.0---wx-----
2019-06-20 09:00:00 25.7 16.3 19.6--- 5621.0--1wx---1011.9 988.0 0.2---------
2019-06-20 08:00:00 24.9 15.8 19.0--- 5719.0--1wx--11012.0 988.0 0.4---------
2019-06-20 07:00:00 23.4 17.8 19.6--- 7122.0--1wx--11012.1 988.0 0.6---------
2019-06-20 06:00:00 22.3 17.4 18.9 23.2 17.2 16 7418.0--1wx--11012.0 987.8 0.5- 0.012----- 8.8
2019-06-20 05:00:00 20.9 17.1 18.3--- 7917.0--0---01011.9 987.6 0.7---------
2019-06-20 04:00:00 18.9 17.7 18.0--- 9313.0--0---01011.8 987.4 0.6---------
2019-06-20 03:00:00 17.4 16.4 16.7--- 9410.0--0---01011.9 987.3 0.3---wx-----
2019-06-20 02:00:00 17.3 16.3 16.6--- 948.0--1wx---1011.5 986.9 -0.2---wx-----
2019-06-20 01:00:00 18.0 16.7 17.1--- 9210.0--0----1011.3 986.8 -0.4---------
2019-06-20 00:00:00 19.1 17.4 17.9--- 9013.0--1wx--11011.4 987.0 -0.6- 0.06------
2019-06-19 23:00:00 19.3 17.6 18.1--- 908.0--0----1011.5 987.1 -0.5---wx-----
2019-06-19 22:00:00 20.2 18.3 18.8--- 8910.0--1wx---1011.5 987.2 -0.8---------
2019-06-19 21:00:00 21.2 18.9 19.5--- 8712.0--1wx--11011.9 987.6 -0.2---------
2019-06-19 20:00:00 21.6 18.8 19.6--- 8414.0--1wx--11011.8 987.6 0.1---------
2019-06-19 19:00:00 22.4 18.8 19.9--- 806.0--1wx--11012.2 988.0 0.6---------
2019-06-19 18:00:00 23.2 18.5 19.9 30.7 21.8- 7515.0--1wx-1011011.9 987.8 0.1- 0.012------
2019-06-19 17:00:00 24.6 18.5 20.4--- 6921.0--0---01011.5 987.5 -0.3---------
2019-06-19 16:00:00 25.2 17.7 20.2--- 6321.0--3wx--31011.3 987.4 -0.5---------
2019-06-19 15:00:00 26.4 16.0 19.7--- 5326.0--3wx---1011.5 987.7 -0.7---------
2019-06-19 14:00:00 28.1 17.0 20.8--- 5116.0--4wx101041011.5 987.8 -1.4---------
2019-06-19 13:00:00 29.5 12.4 19.0--- 3525.0--2wx--21011.5 987.9 -1.6---------
2019-06-19 12:00:00 30.2 14.7 20.4--- 3920.0--2wx--21011.9 988.4 -1.5- 0.06------
2019-06-19 11:00:00 28.6 15.5 20.2--- 4520.0--2wx--21012.9 989.2 -1.2---------
2019-06-19 10:00:00 27.2 16.2 20.1--- 5118.0--1wx--11013.3 989.5 -1.0---------
2019-06-19 09:00:00 26.1 17.2 20.2--- 5817.0--1wx--11013.8 989.9 -0.8---------
2019-06-19 08:00:00 23.7 17.7 19.6--- 6913.0--1wx---1014.5 990.4 -0.2---------
2019-06-19 07:00:00 22.5 17.2 18.9--- 7214.0--1wx--11014.7 990.5 0.0---------
2019-06-19 06:00:00 21.8 17.8 19.0 22.9 16.5 16 7810.0--1wx--11015.0 990.7 0.2- 0.012wx---- 6.1
2019-06-19 05:00:00 20.0 18.0 18.6--- 887.0--1wx--11015.0 990.6 -0.2---wx-----
2019-06-19 04:00:00 17.2 16.7 16.8--- 974.1--1wx--11015.2 990.5 -0.4---wx-----
2019-06-19 03:00:00 16.5 15.9 16.0--- 962.9--1wx---1015.2 990.5 -0.8---wx-----
2019-06-19 02:00:00 17.2 16.4 16.6--- 954.6--1wx--11015.5 990.8 -1.1---wx-----
2019-06-19 01:00:00 17.2 16.1 16.4--- 935.0--1wx--11015.6 990.9 -1.2---wx-----
2019-06-19 00:00:00 17.7 16.4 16.8--- 925.0--1wx--11015.9 991.3 -1.0- 0.06wx-----
1.1 ms

 

Print Friendly, PDF & Email